Z-one — WDE9410 — position and weather

sailwx.info

Track history (hours):
 
Tides and Currents Weather Stations Pressure Air Temp Water Temp Dewpoint Dewpoint Depression Visibility Wind Speed Wind Dir Waves Ship Positions

Z-one

Owner: Moran Towing Corporation, New Canaan, CT. More information available from US FCC via Universal Licensing System and Coast Guard Vessel Documentation Center.

Last reported at 2018-May-24 21:00 UTC. Time now 2018-May-24 21:19 UTC.
Position N 36°53' W 076°20'.

Length 31 m; draft 5 m.

Type: Tug. MMSI: 367416890.

Date/timePositionNaut miles runAvg speedWind from/ knotsBaromVisibWave heightAir tempDewpointWater temp
2018-May-24 21:00N 36°53' W 076°20'4 7.3
2018-May-24 20:30N 36°50' W 076°17'0 0.4
2018-May-24 20:00N 36°50' W 076°16'0 0.0
2018-May-24 13:29N 36°50' W 076°16'1 0.3
2018-May-24 09:00N 36°51' W 076°18'3 5.6
2018-May-24 08:30N 36°53' W 076°20'0 0.3
2018-May-24 07:41N 36°53' W 076°20'0 0.0
2018-May-24 03:55N 36°53' W 076°20'0 0.0
2018-May-24 02:32N 36°53' W 076°20'0 0.3
2018-May-24 02:30N 36°53' W 076°20'0 0.0
2018-May-24 02:00N 36°53' W 076°20'0 0.0
2018-May-24 01:30N 36°53' W 076°20'1 1.3
2018-May-24 01:00N 36°52' W 076°20'1 1.5
2018-May-24 00:30N 36°52' W 076°19'0 0.2
2018-May-24 00:00N 36°52' W 076°19'1 1.9
2018-May-23 23:25N 36°52' W 076°20'3 2.0
2018-May-23 21:50N 36°56' W 076°20'3 0.6
2018-May-23 17:12N 36°53' W 076°20'0 0.8
2018-May-23 17:00N 36°53' W 076°20'0 0.0
2018-May-23 16:30N 36°53' W 076°20'0 0.3
2018-May-23 16:00N 36°53' W 076°20'0 0.5
2018-May-23 15:30N 36°53' W 076°20'0 0.0
2018-May-23 15:01N 36°53' W 076°20'0 0.0
2018-May-23 14:30N 36°53' W 076°20'0 0.0
2018-May-23 14:00N 36°53' W 076°20'0 0.0
2018-May-23 13:31N 36°53' W 076°20'0 0.0
2018-May-23 13:01N 36°53' W 076°20'0 0.0
2018-May-23 12:30N 36°53' W 076°20'2 3.1
2018-May-23 11:53N 36°55' W 076°20'0 0.1
2018-May-23 11:30N 36°55' W 076°20'1 1.4
2018-May-23 10:48N 36°56' W 076°20'2 0.7
2018-May-23 08:11N 36°54' W 076°20'2 8.9
2018-May-23 08:00N 36°52' W 076°20'3 7.0
2018-May-23 07:30N 36°49' W 076°17'1 2.5
2018-May-23 07:00N 36°48' W 076°17'1 2.2
2018-May-23 06:30N 36°49' W 076°17'3 3.0
2018-May-23 05:35N 36°51' W 076°19'0 0.3
2018-May-23 05:31N 36°51' W 076°19'0 0.2
2018-May-23 04:49N 36°51' W 076°19'4 3.1
2018-May-23 03:31N 36°56' W 076°20'0 0.2
2018-May-23 03:13N 36°55' W 076°20'0 0.2
2018-May-23 02:56N 36°56' W 076°20'3 3.3
2018-May-23 02:07N 36°53' W 076°20'1 7.9
2018-May-23 02:00N 36°52' W 076°20'1 1.1
2018-May-23 01:29N 36°51' W 076°19'0 0.0
2018-May-23 00:34N 36°51' W 076°19'0 0.1
2018-May-23 00:30N 36°51' W 076°19'0 0.0
2018-May-22 23:27N 36°51' W 076°19'0 0.0
2018-May-22 20:43N 36°51' W 076°19'0 0.0
2018-May-22 20:17N 36°51' W 076°19'0 0.0
2018-May-22 20:00N 36°51' W 076°19'0 0.0
2018-May-22 19:22N 36°51' W 076°19'0 0.0
2018-May-22 18:46N 36°51' W 076°19'0 0.0
2018-May-22 16:49N 36°51' W 076°19'0 0.0
2018-May-22 15:53N 36°51' W 076°19'1 3.5
2018-May-22 15:30N 36°53' W 076°20'1 1.2
2018-May-22 14:48N 36°54' W 076°20'2 3.7
2018-May-22 14:13N 36°51' W 076°20'0 0.7
2018-May-22 13:55N 36°52' W 076°19'4 1.9
2018-May-22 11:39N 36°56' W 076°20'2 8.8
2018-May-22 11:24N 36°54' W 076°20'1 3.3
2018-May-22 11:00N 36°53' W 076°21'2 2.9
2018-May-22 10:27N 36°54' W 076°20'2 3.0
2018-May-22 09:57N 36°55' W 076°20'1 2.2
2018-May-22 09:29N 36°56' W 076°20'1 1.0
2018-May-22 08:42N 36°56' W 076°20'2 8.8
2018-May-22 08:27N 36°54' W 076°20'4 8.0
2018-May-22 08:01N 36°51' W 076°18'1 2.2
2018-May-22 07:30N 36°50' W 076°16'0 0.0
2018-May-22 07:00N 36°50' W 076°16'0 0.0
2018-May-22 06:29N 36°50' W 076°16'0 0.0
2018-May-22 06:00N 36°50' W 076°16'0 0.0
2018-May-22 05:30N 36°50' W 076°16'0 0.0
2018-May-22 05:00N 36°50' W 076°16'0 0.0
2018-May-22 04:30N 36°50' W 076°16'0 0.0
2018-May-22 04:00N 36°50' W 076°16'0 0.0
2018-May-22 03:31N 36°50' W 076°16'0 0.0
2018-May-22 03:01N 36°50' W 076°16'0 0.0
2018-May-22 02:31N 36°50' W 076°16'0 0.0
2018-May-22 02:00N 36°50' W 076°16'0 0.0
2018-May-22 01:30N 36°50' W 076°16'0 0.0
2018-May-22 01:00N 36°50' W 076°16'0 0.0
2018-May-22 00:31N 36°50' W 076°16'0 0.0
2018-May-22 00:01N 36°50' W 076°16'0 0.0
2018-May-21 23:30N 36°50' W 076°16'0 0.0
2018-May-21 23:00N 36°50' W 076°16'0 0.0
2018-May-21 22:30N 36°50' W 076°16'0 0.0
2018-May-21 22:00N 36°50' W 076°16'0 0.0
2018-May-21 21:29N 36°50' W 076°16'0 0.6
2018-May-21 21:01N 36°50' W 076°17'2 3.4
2018-May-21 20:30N 36°51' W 076°18'1 1.2
2018-May-21 20:00N 36°51' W 076°19'0 0.0
2018-May-21 19:30N 36°51' W 076°19'0 0.0
2018-May-21 19:00N 36°51' W 076°19'0 0.0
2018-May-21 18:30N 36°51' W 076°19'0 0.0
2018-May-21 18:00N 36°51' W 076°19'2 4.8
2018-May-21 17:30N 36°50' W 076°16'0 0.4
2018-May-21 17:00N 36°50' W 076°16'0 0.0
2018-May-21 16:31N 36°50' W 076°16'0 0.0
2018-May-21 16:00N 36°50' W 076°16'0 0.0
2018-May-21 15:30N 36°50' W 076°16'0 0.0
2018-May-21 15:00N 36°50' W 076°16'0 0.0
2018-May-21 14:30N 36°50' W 076°16'0 0.0
2018-May-21 14:00N 36°50' W 076°16'0 0.0
2018-May-21 13:31N 36°50' W 076°16'0 0.0
2018-May-21 13:01N 36°50' W 076°16'0 0.0
2018-May-21 12:30N 36°50' W 076°16'0 0.0
2018-May-21 12:00N 36°50' W 076°16'0 0.0
2018-May-21 11:30N 36°50' W 076°16'0 0.0
2018-May-21 11:00N 36°50' W 076°16'0 0.0
2018-May-21 10:30N 36°50' W 076°16'0 0.0
2018-May-21 10:00N 36°50' W 076°16'0 0.0
2018-May-21 09:30N 36°50' W 076°16'0 0.0
2018-May-21 09:00N 36°50' W 076°16'0 0.0
2018-May-21 08:30N 36°50' W 076°16'0 0.0
2018-May-21 08:01N 36°50' W 076°16'0 0.0
2018-May-21 07:31N 36°50' W 076°16'0 0.0
2018-May-21 07:00N 36°50' W 076°16'0 0.0
2018-May-21 06:30N 36°50' W 076°16'0 0.0
2018-May-21 06:01N 36°50' W 076°16'0 0.0
2018-May-21 05:31N 36°50' W 076°16'0 0.0
2018-May-21 05:01N 36°50' W 076°16'0 0.0
2018-May-21 04:30N 36°50' W 076°16'0 0.0
2018-May-21 04:00N 36°50' W 076°16'0 0.0
2018-May-21 03:31N 36°50' W 076°16'0 0.0
2018-May-21 03:01N 36°50' W 076°16'0 0.0
2018-May-21 02:30N 36°50' W 076°16'0 0.0
2018-May-21 02:00N 36°50' W 076°16'0 0.0
2018-May-21 01:30N 36°50' W 076°16'0 0.0
2018-May-21 01:00N 36°50' W 076°16'0 0.0
2018-May-21 00:30N 36°50' W 076°16'0 0.0
2018-May-21 00:00N 36°50' W 076°16'0 0.0
2018-May-20 23:31N 36°50' W 076°16'0 0.0
2018-May-20 23:01N 36°50' W 076°16'0 0.0
2018-May-20 22:30N 36°50' W 076°16'0 0.0
2018-May-20 22:00N 36°50' W 076°16'0 0.0
2018-May-20 21:31N 36°50' W 076°16'0 0.0
2018-May-20 21:00N 36°50' W 076°16'0 0.0
2018-May-20 20:31N 36°50' W 076°16'0 0.0
2018-May-20 20:00N 36°50' W 076°16'0 0.0
2018-May-20 19:30N 36°50' W 076°16'0 0.0
2018-May-20 19:01N 36°50' W 076°16'0 0.0
2018-May-20 18:30N 36°50' W 076°16'0 0.0
2018-May-20 18:01N 36°50' W 076°16'0 0.0
2018-May-20 17:30N 36°50' W 076°16'0 0.0
2018-May-20 17:00N 36°50' W 076°16'0 0.0
2018-May-20 16:30N 36°50' W 076°16'0 0.1
2018-May-20 16:00N 36°50' W 076°16'0 0.1
2018-May-20 15:31N 36°50' W 076°16'0 0.0
2018-May-20 15:00N 36°50' W 076°16'0 0.0
2018-May-20 14:30N 36°50' W 076°16'0 0.0
2018-May-20 14:00N 36°50' W 076°16'0 0.0
2018-May-20 13:30N 36°50' W 076°16'0 0.0
2018-May-20 13:00N 36°50' W 076°16'0 0.0
2018-May-20 12:30N 36°50' W 076°16'0 0.0
2018-May-20 12:00N 36°50' W 076°16'0 0.0
2018-May-20 11:31N 36°50' W 076°16'0 0.0
2018-May-20 11:00N 36°50' W 076°16'0 0.0
2018-May-20 10:30N 36°50' W 076°16'0 0.0
2018-May-20 10:01N 36°50' W 076°16'0 0.0
2018-May-20 09:30N 36°50' W 076°16'0 0.0
2018-May-20 09:00N 36°50' W 076°16'0 0.0
2018-May-20 08:29N 36°50' W 076°16'0 0.0
2018-May-20 08:00N 36°50' W 076°16'0 0.0
2018-May-20 07:30N 36°50' W 076°16'0 0.0
2018-May-20 07:01N 36°50' W 076°16'0 0.0
2018-May-20 06:30N 36°50' W 076°16'0 0.0
2018-May-20 06:00N 36°50' W 076°16'0 0.0
2018-May-20 05:30N 36°50' W 076°16'0 0.0
2018-May-20 04:59N 36°50' W 076°16'0 0.0
2018-May-20 04:30N 36°50' W 076°16'0 0.0
2018-May-20 04:01N 36°50' W 076°16'0 0.0
2018-May-20 03:31N 36°50' W 076°16'0 0.0
2018-May-20 03:01N 36°50' W 076°16'0 0.0
2018-May-20 02:30N 36°50' W 076°16'0 0.0
2018-May-20 02:01N 36°50' W 076°16'0 0.0
2018-May-20 01:30N 36°50' W 076°16'0 0.0
2018-May-20 01:00N 36°50' W 076°16'0 0.0
2018-May-20 00:30N 36°50' W 076°16'0 0.0
2018-May-19 23:58N 36°50' W 076°16'0 0.0
2018-May-19 23:30N 36°50' W 076°16'0 0.0
2018-May-19 23:00N 36°50' W 076°16'0 0.0
2018-May-19 22:29N 36°50' W 076°16'0 0.0
2018-May-19 22:00N 36°50' W 076°16'0 0.0
2018-May-19 21:30N 36°50' W 076°16'0 0.7
2018-May-19 21:01N 36°50' W 076°17'2 4.6
2018-May-19 20:30N 36°51' W 076°19'0 0.0
2018-May-19 19:40N 36°51' W 076°19'1 6.6
2018-May-19 19:31N 36°51' W 076°18'2 3.2
2018-May-19 19:00N 36°50' W 076°16'0 0.0
2018-May-19 18:30N 36°50' W 076°16'0 0.0
2018-May-19 18:00N 36°50' W 076°16'0 0.0
2018-May-19 17:31N 36°50' W 076°16'0 0.0
2018-May-19 17:00N 36°50' W 076°16'0 0.0
2018-May-19 16:31N 36°50' W 076°16'0 0.0
2018-May-19 16:01N 36°50' W 076°16'0 0.0
2018-May-19 15:31N 36°50' W 076°16'1 2.0
2018-May-19 15:00N 36°51' W 076°18'2 2.4
2018-May-19 14:20N 36°51' W 076°19'0 0.0
2018-May-19 13:35N 36°51' W 076°19'0 2.3
2018-May-19 13:27N 36°51' W 076°19'2 5.5
2018-May-19 13:00N 36°50' W 076°16'0 0.3
2018-May-19 12:30N 36°50' W 076°16'0 0.0
2018-May-19 12:00N 36°50' W 076°16'0 0.0
2018-May-19 11:31N 36°50' W 076°16'0 0.0
2018-May-19 10:48N 36°50' W 076°16'0 0.0
2018-May-19 10:20N 36°50' W 076°16'0 0.0
2018-May-19 09:58N 36°50' W 076°16'0 0.0
2018-May-19 09:30N 36°50' W 076°16'0 0.0
2018-May-19 09:00N 36°50' W 076°16'0 0.0
2018-May-19 08:30N 36°50' W 076°16'0 0.0
2018-May-19 08:01N 36°50' W 076°16'0 0.0
2018-May-19 07:30N 36°50' W 076°16'0 0.0
2018-May-19 07:01N 36°50' W 076°16'0 0.0
2018-May-19 06:30N 36°50' W 076°16'0 0.0
2018-May-19 06:00N 36°50' W 076°16'0 0.0
2018-May-19 05:31N 36°50' W 076°16'0 0.0
2018-May-19 05:00N 36°50' W 076°16'0 0.0
2018-May-19 04:31N 36°50' W 076°16'0 0.0
2018-May-19 04:00N 36°50' W 076°16'0 0.0
2018-May-19 03:30N 36°50' W 076°16'0 0.0
2018-May-19 03:00N 36°50' W 076°16'0 0.0
2018-May-19 02:30N 36°50' W 076°16'0 0.0
2018-May-19 02:00N 36°50' W 076°16'0 0.0
2018-May-19 01:30N 36°50' W 076°16'0 0.0
2018-May-19 01:00N 36°50' W 076°16'0 0.0
2018-May-19 00:30N 36°50' W 076°16'0 0.0
2018-May-19 00:00N 36°50' W 076°16'0 0.0
2018-May-18 23:30N 36°50' W 076°16'0 0.0
2018-May-18 23:00N 36°50' W 076°16'0 0.0
2018-May-18 22:31N 36°50' W 076°16'0 0.0
2018-May-18 22:00N 36°50' W 076°16'0 0.0
2018-May-18 21:31N 36°50' W 076°16'0 0.0
2018-May-18 21:00N 36°50' W 076°16'0 0.0
2018-May-18 20:31N 36°50' W 076°16'0 0.0
2018-May-18 20:00N 36°50' W 076°16'0 0.0
2018-May-18 19:30N 36°50' W 076°16'0 0.0
2018-May-18 19:00N 36°50' W 076°16'0 0.0
2018-May-18 18:30N 36°50' W 076°16'0 0.0
2018-May-18 18:01N 36°50' W 076°16'0 0.0
2018-May-18 17:30N 36°50' W 076°16'0 0.0
2018-May-18 17:00N 36°50' W 076°16'0 0.0
2018-May-18 16:30N 36°50' W 076°16'0 0.0
2018-May-18 16:00N 36°50' W 076°16'0 0.0
2018-May-18 15:30N 36°50' W 076°16'0 0.4
2018-May-18 14:57N 36°50' W 076°16'0 0.0
2018-May-18 14:30N 36°50' W 076°16'0 0.0
2018-May-18 13:58N 36°50' W 076°16'0 0.0
2018-May-18 13:29N 36°50' W 076°16'0 0.0
2018-May-18 13:00N 36°50' W 076°16'0 0.0
2018-May-18 12:28N 36°50' W 076°16'0 0.0
2018-May-18 12:00N 36°50' W 076°16'0 0.0
2018-May-18 11:30N 36°50' W 076°16'0 0.0
2018-May-18 11:01N 36°50' W 076°16'0 0.0
2018-May-18 10:30N 36°50' W 076°16'0 0.0
2018-May-18 10:00N 36°50' W 076°16'0 0.0
2018-May-18 09:30N 36°50' W 076°16'0 0.0
2018-May-18 09:00N 36°50' W 076°16'0 0.4
2018-May-18 08:31N 36°50' W 076°16'0 0.0
2018-May-18 08:01N 36°50' W 076°16'0 0.0
2018-May-18 07:31N 36°50' W 076°16'0 0.0
2018-May-18 07:00N 36°50' W 076°16'0 0.0
2018-May-18 06:30N 36°50' W 076°16'0 0.0
2018-May-18 06:01N 36°50' W 076°16'0 0.0
2018-May-18 05:30N 36°50' W 076°16'0 0.0
2018-May-18 05:01N 36°50' W 076°16'0 0.0
2018-May-18 04:30N 36°50' W 076°16'0 0.0
2018-May-18 04:00N 36°50' W 076°16'0 0.0
2018-May-18 03:30N 36°50' W 076°16'0 0.0
2018-May-18 03:00N 36°50' W 076°16'0 0.0
2018-May-18 02:30N 36°50' W 076°16'0 0.0
2018-May-18 02:00N 36°50' W 076°16'0 0.0
2018-May-18 01:30N 36°50' W 076°16'0 0.0
2018-May-18 01:00N 36°50' W 076°16'0 0.0
2018-May-18 00:30N 36°50' W 076°16'0 0.0
2018-May-18 00:01N 36°50' W 076°16'0 0.0
2018-May-17 23:30N 36°50' W 076°16'0 0.0
2018-May-17 23:00N 36°50' W 076°16'0 0.5
2018-May-17 22:30N 36°50' W 076°17'2 2.4
2018-May-17 21:30N 36°51' W 076°19'0 0.5
2018-May-17 20:51N 36°51' W 076°20'2 2.0
2018-May-17 19:58N 36°53' W 076°20'1 2.5
2018-May-17 19:30N 36°52' W 076°20'3 6.3
2018-May-17 19:00N 36°50' W 076°16'3 5.1
2018-May-17 18:30N 36°51' W 076°19'4 5.7
2018-May-17 17:53N 36°55' W 076°20'3 7.9
2018-May-17 17:30N 36°52' W 076°20'3 6.1
2018-May-17 17:00N 36°50' W 076°16'0 0.0
2018-May-17 16:30N 36°50' W 076°16'0 0.0
2018-May-17 16:00N 36°50' W 076°16'0 0.0
2018-May-17 15:30N 36°50' W 076°16'0 0.0
2018-May-17 15:01N 36°50' W 076°16'0 0.0
2018-May-17 14:30N 36°50' W 076°16'0 0.0
2018-May-17 14:00N 36°50' W 076°16'0 0.0
2018-May-17 13:30N 36°50' W 076°16'0 0.0
2018-May-17 13:00N 36°50' W 076°16'0 0.0
2018-May-17 12:30N 36°50' W 076°16'0 0.0
2018-May-17 12:00N 36°50' W 076°16'0 0.0
2018-May-17 11:30N 36°50' W 076°16'0 0.0
2018-May-17 11:01N 36°50' W 076°16'0 0.0
2018-May-17 10:31N 36°50' W 076°16'0 0.0
2018-May-17 10:00N 36°50' W 076°16'0 0.0
2018-May-17 09:30N 36°50' W 076°16'0 0.0
2018-May-17 09:00N 36°50' W 076°16'0 0.0
2018-May-17 08:30N 36°50' W 076°16'0 0.0
2018-May-17 08:01N 36°50' W 076°16'0 0.0
2018-May-17 07:30N 36°50' W 076°16'0 0.0
2018-May-17 07:01N 36°50' W 076°16'0 0.0
2018-May-17 06:30N 36°50' W 076°16'0 0.0
2018-May-17 06:00N 36°50' W 076°16'0 0.0
2018-May-17 05:30N 36°50' W 076°16'0 0.0
2018-May-17 05:00N 36°50' W 076°16'0 0.0
2018-May-17 04:30N 36°50' W 076°16'0 0.0
2018-May-17 04:01N 36°50' W 076°16'0 0.0
2018-May-17 03:30N 36°50' W 076°16'0 0.0
2018-May-17 03:00N 36°50' W 076°16'0 0.0
2018-May-17 02:30N 36°50' W 076°16'0 0.0
2018-May-17 02:01N 36°50' W 076°16'0 0.0
2018-May-17 01:30N 36°50' W 076°16'0 0.0
2018-May-17 01:01N 36°50' W 076°16'0 0.0
2018-May-17 00:30N 36°50' W 076°16'0 0.0
2018-May-17 00:01N 36°50' W 076°16'0 0.0
2018-May-16 23:31N 36°50' W 076°16'0 0.2
2018-May-16 23:01N 36°50' W 076°16'4 7.7
2018-May-16 22:28N 36°53' W 076°20'2 3.5
2018-May-16 22:00N 36°55' W 076°20'0 0.1
2018-May-16 21:30N 36°55' W 076°20'1 2.6
2018-May-16 20:56N 36°56' W 076°20'2 1.7
2018-May-16 19:30N 36°54' W 076°20'4 8.3
2018-May-16 19:00N 36°50' W 076°17'1 1.1
2018-May-16 18:30N 36°50' W 076°16'0 0.0
2018-May-16 18:00N 36°50' W 076°16'0 0.0
2018-May-16 17:30N 36°50' W 076°16'0 0.0
2018-May-16 17:00N 36°50' W 076°16'3 4.2
2018-May-16 16:23N 36°52' W 076°19'3 6.6
2018-May-16 16:01N 36°50' W 076°16'0 0.0
2018-May-16 15:31N 36°50' W 076°16'0 0.0
2018-May-16 15:00N 36°50' W 076°16'0 0.0
2018-May-16 14:30N 36°50' W 076°16'0 0.0
2018-May-16 14:00N 36°50' W 076°16'0 0.0
2018-May-16 13:31N 36°50' W 076°16'0 0.0
2018-May-16 13:01N 36°50' W 076°16'0 0.0
2018-May-16 12:31N 36°50' W 076°16'0 0.0
2018-May-16 12:00N 36°50' W 076°16'0 0.0
2018-May-16 11:30N 36°50' W 076°16'0 0.0
2018-May-16 11:00N 36°50' W 076°16'0 0.0
2018-May-16 10:30N 36°50' W 076°16'0 0.0
2018-May-16 10:00N 36°50' W 076°16'0 0.0
2018-May-16 09:30N 36°50' W 076°16'0 0.0
2018-May-16 09:00N 36°50' W 076°16'0 0.0
2018-May-16 08:31N 36°50' W 076°16'0 0.0
2018-May-16 08:00N 36°50' W 076°16'0 0.0
2018-May-16 07:30N 36°50' W 076°16'0 0.0
2018-May-16 07:00N 36°50' W 076°16'0 0.0
2018-May-16 06:30N 36°50' W 076°16'0 0.0
2018-May-16 06:00N 36°50' W 076°16'0 0.0
2018-May-16 05:30N 36°50' W 076°16'0 0.0
2018-May-16 05:00N 36°50' W 076°16'0 0.0
2018-May-16 04:30N 36°50' W 076°16'0 0.0
2018-May-16 04:00N 36°50' W 076°16'0 0.0
2018-May-16 03:30N 36°50' W 076°16'0 0.0
2018-May-16 03:01N 36°50' W 076°16'0 0.0
2018-May-16 02:31N 36°50' W 076°16'0 0.0
2018-May-16 02:01N 36°50' W 076°16'0 0.0
2018-May-16 01:31N 36°50' W 076°16'0 0.0
2018-May-16 01:00N 36°50' W 076°16'0 0.0
2018-May-16 00:31N 36°50' W 076°16'0 0.0
2018-May-16 00:01N 36°50' W 076°16'0 0.0
2018-May-15 23:30N 36°50' W 076°16'0 0.0
2018-May-15 23:00N 36°50' W 076°16'0 0.0
2018-May-15 22:30N 36°50' W 076°16'0 0.6
2018-May-15 22:00N 36°50' W 076°17'3 6.7
2018-May-15 21:30N 36°53' W 076°20'1 1.0
2018-May-15 20:15N 36°54' W 076°20'0 0.9
2018-May-15 19:45N 36°53' W 076°20'1 2.3
2018-May-15 19:31N 36°53' W 076°20'1 1.0
2018-May-15 18:26N 36°52' W 076°19'1 2.8
2018-May-15 17:57N 36°53' W 076°20'0 0.5
2018-May-15 17:29N 36°53' W 076°20'4 7.9
2018-May-15 17:00N 36°50' W 076°16'0 0.1
2018-May-15 16:30N 36°50' W 076°16'0 0.0
2018-May-15 16:00N 36°50' W 076°16'0 0.0
2018-May-15 15:30N 36°50' W 076°16'0 0.0
2018-May-15 15:01N 36°50' W 076°16'0 0.0
2018-May-15 14:31N 36°50' W 076°16'0 0.0
2018-May-15 14:00N 36°50' W 076°16'0 0.0
2018-May-15 13:30N 36°50' W 076°16'0 0.0
2018-May-15 13:01N 36°50' W 076°16'0 0.0
2018-May-15 12:30N 36°50' W 076°16'1 2.7
2018-May-15 12:00N 36°50' W 076°18'1 2.9
2018-May-15 11:30N 36°48' W 076°17'0 0.3
2018-May-15 11:00N 36°48' W 076°17'2 4.6
2018-May-15 10:30N 36°50' W 076°18'2 4.3
2018-May-15 10:00N 36°52' W 076°20'4 1.7
2018-May-15 07:45N 36°56' W 076°20'0 0.0
2018-May-15 07:28N 36°56' W 076°20'0 0.1
2018-May-15 04:39N 36°56' W 076°20'2 8.4
2018-May-15 04:23N 36°53' W 076°20'1 0.9
2018-May-15 03:41N 36°53' W 076°20'0 1.4
2018-May-15 03:30N 36°53' W 076°20'1 2.7
2018-May-15 03:01N 36°51' W 076°19'0 0.0
2018-May-14 22:49N 36°51' W 076°19'2 4.9
2018-May-14 22:24N 36°53' W 076°21'1 1.0
2018-May-14 21:37N 36°53' W 076°20'2 5.7
2018-May-14 21:19N 36°55' W 076°20'  
Track history (hours):
 
Tides and Currents Weather Stations Pressure Air Temp Water Temp Dewpoint Dewpoint Depression Visibility Wind Speed Wind Dir Waves Ship Positions

Z-one

Owner: Moran Towing Corporation, New Canaan, CT. More information available from US FCC via Universal Licensing System and Coast Guard Vessel Documentation Center.

Last reported at 2018-May-24 21:00 UTC. Time now 2018-May-24 21:19 UTC.
Position N 36°53' W 076°20'.

Length 31 m; draft 5 m.

Type: Tug. MMSI: 367416890.

Date/timePositionNaut miles runAvg speedWind from/ knotsBaromVisibWave heightAir tempDewpointWater temp
2018-May-24 21:00N 36°53' W 076°20'4 7.3
2018-May-24 20:30N 36°50' W 076°17'0 0.4
2018-May-24 20:00N 36°50' W 076°16'0 0.0
2018-May-24 13:29N 36°50' W 076°16'1 0.3
2018-May-24 09:00N 36°51' W 076°18'3 5.6
2018-May-24 08:30N 36°53' W 076°20'0 0.3
2018-May-24 07:41N 36°53' W 076°20'0 0.0
2018-May-24 03:55N 36°53' W 076°20'0 0.0
2018-May-24 02:32N 36°53' W 076°20'0 0.3
2018-May-24 02:30N 36°53' W 076°20'0 0.0
2018-May-24 02:00N 36°53' W 076°20'0 0.0
2018-May-24 01:30N 36°53' W 076°20'1 1.3
2018-May-24 01:00N 36°52' W 076°20'1 1.5
2018-May-24 00:30N 36°52' W 076°19'0 0.2
2018-May-24 00:00N 36°52' W 076°19'1 1.9
2018-May-23 23:25N 36°52' W 076°20'3 2.0
2018-May-23 21:50N 36°56' W 076°20'3 0.6
2018-May-23 17:12N 36°53' W 076°20'0 0.8
2018-May-23 17:00N 36°53' W 076°20'0 0.0
2018-May-23 16:30N 36°53' W 076°20'0 0.3
2018-May-23 16:00N 36°53' W 076°20'0 0.5
2018-May-23 15:30N 36°53' W 076°20'0 0.0
2018-May-23 15:01N 36°53' W 076°20'0 0.0
2018-May-23 14:30N 36°53' W 076°20'0 0.0
2018-May-23 14:00N 36°53' W 076°20'0 0.0
2018-May-23 13:31N 36°53' W 076°20'0 0.0
2018-May-23 13:01N 36°53' W 076°20'0 0.0
2018-May-23 12:30N 36°53' W 076°20'2 3.1
2018-May-23 11:53N 36°55' W 076°20'0 0.1
2018-May-23 11:30N 36°55' W 076°20'1 1.4
2018-May-23 10:48N 36°56' W 076°20'2 0.7
2018-May-23 08:11N 36°54' W 076°20'2 8.9
2018-May-23 08:00N 36°52' W 076°20'3 7.0
2018-May-23 07:30N 36°49' W 076°17'1 2.5
2018-May-23 07:00N 36°48' W 076°17'1 2.2
2018-May-23 06:30N 36°49' W 076°17'3 3.0
2018-May-23 05:35N 36°51' W 076°19'0 0.3
2018-May-23 05:31N 36°51' W 076°19'0 0.2
2018-May-23 04:49N 36°51' W 076°19'4 3.1
2018-May-23 03:31N 36°56' W 076°20'0 0.2
2018-May-23 03:13N 36°55' W 076°20'0 0.2
2018-May-23 02:56N 36°56' W 076°20'3 3.3
2018-May-23 02:07N 36°53' W 076°20'1 7.9
2018-May-23 02:00N 36°52' W 076°20'1 1.1
2018-May-23 01:29N 36°51' W 076°19'0 0.0
2018-May-23 00:34N 36°51' W 076°19'0 0.1
2018-May-23 00:30N 36°51' W 076°19'0 0.0
2018-May-22 23:27N 36°51' W 076°19'0 0.0
2018-May-22 20:43N 36°51' W 076°19'0 0.0
2018-May-22 20:17N 36°51' W 076°19'0 0.0
2018-May-22 20:00N 36°51' W 076°19'0 0.0
2018-May-22 19:22N 36°51' W 076°19'0 0.0
2018-May-22 18:46N 36°51' W 076°19'0 0.0
2018-May-22 16:49N 36°51' W 076°19'0 0.0
2018-May-22 15:53N 36°51' W 076°19'1 3.5
2018-May-22 15:30N 36°53' W 076°20'1 1.2
2018-May-22 14:48N 36°54' W 076°20'2 3.7
2018-May-22 14:13N 36°51' W 076°20'0 0.7
2018-May-22 13:55N 36°52' W 076°19'4 1.9
2018-May-22 11:39N 36°56' W 076°20'2 8.8
2018-May-22 11:24N 36°54' W 076°20'1 3.3
2018-May-22 11:00N 36°53' W 076°21'2 2.9
2018-May-22 10:27N 36°54' W 076°20'2 3.0
2018-May-22 09:57N 36°55' W 076°20'1 2.2
2018-May-22 09:29N 36°56' W 076°20'1 1.0
2018-May-22 08:42N 36°56' W 076°20'2 8.8
2018-May-22 08:27N 36°54' W 076°20'4 8.0
2018-May-22 08:01N 36°51' W 076°18'1 2.2
2018-May-22 07:30N 36°50' W 076°16'0 0.0
2018-May-22 07:00N 36°50' W 076°16'0 0.0
2018-May-22 06:29N 36°50' W 076°16'0 0.0
2018-May-22 06:00N 36°50' W 076°16'0 0.0
2018-May-22 05:30N 36°50' W 076°16'0 0.0
2018-May-22 05:00N 36°50' W 076°16'0 0.0
2018-May-22 04:30N 36°50' W 076°16'0 0.0
2018-May-22 04:00N 36°50' W 076°16'0 0.0
2018-May-22 03:31N 36°50' W 076°16'0 0.0
2018-May-22 03:01N 36°50' W 076°16'0 0.0
2018-May-22 02:31N 36°50' W 076°16'0 0.0
2018-May-22 02:00N 36°50' W 076°16'0 0.0
2018-May-22 01:30N 36°50' W 076°16'0 0.0
2018-May-22 01:00N 36°50' W 076°16'0 0.0
2018-May-22 00:31N 36°50' W 076°16'0 0.0
2018-May-22 00:01N 36°50' W 076°16'0 0.0
2018-May-21 23:30N 36°50' W 076°16'0 0.0
2018-May-21 23:00N 36°50' W 076°16'0 0.0
2018-May-21 22:30N 36°50' W 076°16'0 0.0
2018-May-21 22:00N 36°50' W 076°16'0 0.0
2018-May-21 21:29N 36°50' W 076°16'0 0.6
2018-May-21 21:01N 36°50' W 076°17'2 3.4
2018-May-21 20:30N 36°51' W 076°18'1 1.2
2018-May-21 20:00N 36°51' W 076°19'0 0.0
2018-May-21 19:30N 36°51' W 076°19'0 0.0
2018-May-21 19:00N 36°51' W 076°19'0 0.0
2018-May-21 18:30N 36°51' W 076°19'0 0.0
2018-May-21 18:00N 36°51' W 076°19'2 4.8
2018-May-21 17:30N 36°50' W 076°16'0 0.4
2018-May-21 17:00N 36°50' W 076°16'0 0.0
2018-May-21 16:31N 36°50' W 076°16'0 0.0
2018-May-21 16:00N 36°50' W 076°16'0 0.0
2018-May-21 15:30N 36°50' W 076°16'0 0.0
2018-May-21 15:00N 36°50' W 076°16'0 0.0
2018-May-21 14:30N 36°50' W 076°16'0 0.0
2018-May-21 14:00N 36°50' W 076°16'0 0.0
2018-May-21 13:31N 36°50' W 076°16'0 0.0
2018-May-21 13:01N 36°50' W 076°16'0 0.0
2018-May-21 12:30N 36°50' W 076°16'0 0.0
2018-May-21 12:00N 36°50' W 076°16'0 0.0
2018-May-21 11:30N 36°50' W 076°16'0 0.0
2018-May-21 11:00N 36°50' W 076°16'0 0.0
2018-May-21 10:30N 36°50' W 076°16'0 0.0
2018-May-21 10:00N 36°50' W 076°16'0 0.0
2018-May-21 09:30N 36°50' W 076°16'0 0.0
2018-May-21 09:00N 36°50' W 076°16'0 0.0
2018-May-21 08:30N 36°50' W 076°16'0 0.0
2018-May-21 08:01N 36°50' W 076°16'0 0.0
2018-May-21 07:31N 36°50' W 076°16'0 0.0
2018-May-21 07:00N 36°50' W 076°16'0 0.0
2018-May-21 06:30N 36°50' W 076°16'0 0.0
2018-May-21 06:01N 36°50' W 076°16'0 0.0
2018-May-21 05:31N 36°50' W 076°16'0 0.0
2018-May-21 05:01N 36°50' W 076°16'0 0.0
2018-May-21 04:30N 36°50' W 076°16'0 0.0
2018-May-21 04:00N 36°50' W 076°16'0 0.0
2018-May-21 03:31N 36°50' W 076°16'0 0.0
2018-May-21 03:01N 36°50' W 076°16'0 0.0
2018-May-21 02:30N 36°50' W 076°16'0 0.0
2018-May-21 02:00N 36°50' W 076°16'0 0.0
2018-May-21 01:30N 36°50' W 076°16'0 0.0
2018-May-21 01:00N 36°50' W 076°16'0 0.0
2018-May-21 00:30N 36°50' W 076°16'0 0.0
2018-May-21 00:00N 36°50' W 076°16'0 0.0
2018-May-20 23:31N 36°50' W 076°16'0 0.0
2018-May-20 23:01N 36°50' W 076°16'0 0.0
2018-May-20 22:30N 36°50' W 076°16'0 0.0
2018-May-20 22:00N 36°50' W 076°16'0 0.0
2018-May-20 21:31N 36°50' W 076°16'0 0.0
2018-May-20 21:00N 36°50' W 076°16'0 0.0
2018-May-20 20:31N 36°50' W 076°16'0 0.0
2018-May-20 20:00N 36°50' W 076°16'0 0.0
2018-May-20 19:30N 36°50' W 076°16'0 0.0
2018-May-20 19:01N 36°50' W 076°16'0 0.0
2018-May-20 18:30N 36°50' W 076°16'0 0.0
2018-May-20 18:01N 36°50' W 076°16'0 0.0
2018-May-20 17:30N 36°50' W 076°16'0 0.0
2018-May-20 17:00N 36°50' W 076°16'0 0.0
2018-May-20 16:30N 36°50' W 076°16'0 0.1
2018-May-20 16:00N 36°50' W 076°16'0 0.1
2018-May-20 15:31N 36°50' W 076°16'0 0.0
2018-May-20 15:00N 36°50' W 076°16'0 0.0
2018-May-20 14:30N 36°50' W 076°16'0 0.0
2018-May-20 14:00N 36°50' W 076°16'0 0.0
2018-May-20 13:30N 36°50' W 076°16'0 0.0
2018-May-20 13:00N 36°50' W 076°16'0 0.0
2018-May-20 12:30N 36°50' W 076°16'0 0.0
2018-May-20 12:00N 36°50' W 076°16'0 0.0
2018-May-20 11:31N 36°50' W 076°16'0 0.0
2018-May-20 11:00N 36°50' W 076°16'0 0.0
2018-May-20 10:30N 36°50' W 076°16'0 0.0
2018-May-20 10:01N 36°50' W 076°16'0 0.0
2018-May-20 09:30N 36°50' W 076°16'0 0.0
2018-May-20 09:00N 36°50' W 076°16'0 0.0
2018-May-20 08:29N 36°50' W 076°16'0 0.0
2018-May-20 08:00N 36°50' W 076°16'0 0.0
2018-May-20 07:30N 36°50' W 076°16'0 0.0
2018-May-20 07:01N 36°50' W 076°16'0 0.0
2018-May-20 06:30N 36°50' W 076°16'0 0.0
2018-May-20 06:00N 36°50' W 076°16'0 0.0
2018-May-20 05:30N 36°50' W 076°16'0 0.0
2018-May-20 04:59N 36°50' W 076°16'0 0.0
2018-May-20 04:30N 36°50' W 076°16'0 0.0
2018-May-20 04:01N 36°50' W 076°16'0 0.0
2018-May-20 03:31N 36°50' W 076°16'0 0.0
2018-May-20 03:01N 36°50' W 076°16'0 0.0
2018-May-20 02:30N 36°50' W 076°16'0 0.0
2018-May-20 02:01N 36°50' W 076°16'0 0.0
2018-May-20 01:30N 36°50' W 076°16'0 0.0
2018-May-20 01:00N 36°50' W 076°16'0 0.0
2018-May-20 00:30N 36°50' W 076°16'0 0.0
2018-May-19 23:58N 36°50' W 076°16'0 0.0
2018-May-19 23:30N 36°50' W 076°16'0 0.0
2018-May-19 23:00N 36°50' W 076°16'0 0.0
2018-May-19 22:29N 36°50' W 076°16'0 0.0
2018-May-19 22:00N 36°50' W 076°16'0 0.0
2018-May-19 21:30N 36°50' W 076°16'0 0.7
2018-May-19 21:01N 36°50' W 076°17'2 4.6
2018-May-19 20:30N 36°51' W 076°19'0 0.0
2018-May-19 19:40N 36°51' W 076°19'1 6.6
2018-May-19 19:31N 36°51' W 076°18'2 3.2
2018-May-19 19:00N 36°50' W 076°16'0 0.0
2018-May-19 18:30N 36°50' W 076°16'0 0.0
2018-May-19 18:00N 36°50' W 076°16'0 0.0
2018-May-19 17:31N 36°50' W 076°16'0 0.0
2018-May-19 17:00N 36°50' W 076°16'0 0.0
2018-May-19 16:31N 36°50' W 076°16'0 0.0
2018-May-19 16:01N 36°50' W 076°16'0 0.0
2018-May-19 15:31N 36°50' W 076°16'1 2.0
2018-May-19 15:00N 36°51' W 076°18'2 2.4
2018-May-19 14:20N 36°51' W 076°19'0 0.0
2018-May-19 13:35N 36°51' W 076°19'0 2.3
2018-May-19 13:27N 36°51' W 076°19'2 5.5
2018-May-19 13:00N 36°50' W 076°16'0 0.3
2018-May-19 12:30N 36°50' W 076°16'0 0.0
2018-May-19 12:00N 36°50' W 076°16'0 0.0
2018-May-19 11:31N 36°50' W 076°16'0 0.0
2018-May-19 10:48N 36°50' W 076°16'0 0.0
2018-May-19 10:20N 36°50' W 076°16'0 0.0
2018-May-19 09:58N 36°50' W 076°16'0 0.0
2018-May-19 09:30N 36°50' W 076°16'0 0.0
2018-May-19 09:00N 36°50' W 076°16'0 0.0
2018-May-19 08:30N 36°50' W 076°16'0 0.0
2018-May-19 08:01N 36°50' W 076°16'0 0.0
2018-May-19 07:30N 36°50' W 076°16'0 0.0
2018-May-19 07:01N 36°50' W 076°16'0 0.0
2018-May-19 06:30N 36°50' W 076°16'0 0.0
2018-May-19 06:00N 36°50' W 076°16'0 0.0
2018-May-19 05:31N 36°50' W 076°16'0 0.0
2018-May-19 05:00N 36°50' W 076°16'0 0.0
2018-May-19 04:31N 36°50' W 076°16'0 0.0
2018-May-19 04:00N 36°50' W 076°16'0 0.0
2018-May-19 03:30N 36°50' W 076°16'0 0.0
2018-May-19 03:00N 36°50' W 076°16'0 0.0
2018-May-19 02:30N 36°50' W 076°16'0 0.0
2018-May-19 02:00N 36°50' W 076°16'0 0.0
2018-May-19 01:30N 36°50' W 076°16'0 0.0
2018-May-19 01:00N 36°50' W 076°16'0 0.0
2018-May-19 00:30N 36°50' W 076°16'0 0.0
2018-May-19 00:00N 36°50' W 076°16'0 0.0
2018-May-18 23:30N 36°50' W 076°16'0 0.0
2018-May-18 23:00N 36°50' W 076°16'0 0.0
2018-May-18 22:31N 36°50' W 076°16'0 0.0
2018-May-18 22:00N 36°50' W 076°16'0 0.0
2018-May-18 21:31N 36°50' W 076°16'0 0.0
2018-May-18 21:00N 36°50' W 076°16'0 0.0
2018-May-18 20:31N 36°50' W 076°16'0 0.0
2018-May-18 20:00N 36°50' W 076°16'0 0.0
2018-May-18 19:30N 36°50' W 076°16'0 0.0
2018-May-18 19:00N 36°50' W 076°16'0 0.0
2018-May-18 18:30N 36°50' W 076°16'0 0.0
2018-May-18 18:01N 36°50' W 076°16'0 0.0
2018-May-18 17:30N 36°50' W 076°16'0 0.0
2018-May-18 17:00N 36°50' W 076°16'0 0.0
2018-May-18 16:30N 36°50' W 076°16'0 0.0
2018-May-18 16:00N 36°50' W 076°16'0 0.0
2018-May-18 15:30N 36°50' W 076°16'0 0.4
2018-May-18 14:57N 36°50' W 076°16'0 0.0
2018-May-18 14:30N 36°50' W 076°16'0 0.0
2018-May-18 13:58N 36°50' W 076°16'0 0.0
2018-May-18 13:29N 36°50' W 076°16'0 0.0
2018-May-18 13:00N 36°50' W 076°16'0 0.0
2018-May-18 12:28N 36°50' W 076°16'0 0.0
2018-May-18 12:00N 36°50' W 076°16'0 0.0
2018-May-18 11:30N 36°50' W 076°16'0 0.0
2018-May-18 11:01N 36°50' W 076°16'0 0.0
2018-May-18 10:30N 36°50' W 076°16'0 0.0
2018-May-18 10:00N 36°50' W 076°16'0 0.0
2018-May-18 09:30N 36°50' W 076°16'0 0.0
2018-May-18 09:00N 36°50' W 076°16'0 0.4
2018-May-18 08:31N 36°50' W 076°16'0 0.0
2018-May-18 08:01N 36°50' W 076°16'0 0.0
2018-May-18 07:31N 36°50' W 076°16'0 0.0
2018-May-18 07:00N 36°50' W 076°16'0 0.0
2018-May-18 06:30N 36°50' W 076°16'0 0.0
2018-May-18 06:01N 36°50' W 076°16'0 0.0
2018-May-18 05:30N 36°50' W 076°16'0 0.0
2018-May-18 05:01N 36°50' W 076°16'0 0.0
2018-May-18 04:30N 36°50' W 076°16'0 0.0
2018-May-18 04:00N 36°50' W 076°16'0 0.0
2018-May-18 03:30N 36°50' W 076°16'0 0.0
2018-May-18 03:00N 36°50' W 076°16'0 0.0
2018-May-18 02:30N 36°50' W 076°16'0 0.0
2018-May-18 02:00N 36°50' W 076°16'0 0.0
2018-May-18 01:30N 36°50' W 076°16'0 0.0
2018-May-18 01:00N 36°50' W 076°16'0 0.0
2018-May-18 00:30N 36°50' W 076°16'0 0.0
2018-May-18 00:01N 36°50' W 076°16'0 0.0
2018-May-17 23:30N 36°50' W 076°16'0 0.0
2018-May-17 23:00N 36°50' W 076°16'0 0.5
2018-May-17 22:30N 36°50' W 076°17'2 2.4
2018-May-17 21:30N 36°51' W 076°19'0 0.5
2018-May-17 20:51N 36°51' W 076°20'2 2.0
2018-May-17 19:58N 36°53' W 076°20'1 2.5
2018-May-17 19:30N 36°52' W 076°20'3 6.3
2018-May-17 19:00N 36°50' W 076°16'3 5.1
2018-May-17 18:30N 36°51' W 076°19'4 5.7
2018-May-17 17:53N 36°55' W 076°20'3 7.9
2018-May-17 17:30N 36°52' W 076°20'3 6.1
2018-May-17 17:00N 36°50' W 076°16'0 0.0
2018-May-17 16:30N 36°50' W 076°16'0 0.0
2018-May-17 16:00N 36°50' W 076°16'0 0.0
2018-May-17 15:30N 36°50' W 076°16'0 0.0
2018-May-17 15:01N 36°50' W 076°16'0 0.0
2018-May-17 14:30N 36°50' W 076°16'0 0.0
2018-May-17 14:00N 36°50' W 076°16'0 0.0
2018-May-17 13:30N 36°50' W 076°16'0 0.0
2018-May-17 13:00N 36°50' W 076°16'0 0.0
2018-May-17 12:30N 36°50' W 076°16'0 0.0
2018-May-17 12:00N 36°50' W 076°16'0 0.0
2018-May-17 11:30N 36°50' W 076°16'0 0.0
2018-May-17 11:01N 36°50' W 076°16'0 0.0
2018-May-17 10:31N 36°50' W 076°16'0 0.0
2018-May-17 10:00N 36°50' W 076°16'0 0.0
2018-May-17 09:30N 36°50' W 076°16'0 0.0
2018-May-17 09:00N 36°50' W 076°16'0 0.0
2018-May-17 08:30N 36°50' W 076°16'0 0.0
2018-May-17 08:01N 36°50' W 076°16'0 0.0
2018-May-17 07:30N 36°50' W 076°16'0 0.0
2018-May-17 07:01N 36°50' W 076°16'0 0.0
2018-May-17 06:30N 36°50' W 076°16'0 0.0
2018-May-17 06:00N 36°50' W 076°16'0 0.0
2018-May-17 05:30N 36°50' W 076°16'0 0.0
2018-May-17 05:00N 36°50' W 076°16'0 0.0
2018-May-17 04:30N 36°50' W 076°16'0 0.0
2018-May-17 04:01N 36°50' W 076°16'0 0.0
2018-May-17 03:30N 36°50' W 076°16'0 0.0
2018-May-17 03:00N 36°50' W 076°16'0 0.0
2018-May-17 02:30N 36°50' W 076°16'0 0.0
2018-May-17 02:01N 36°50' W 076°16'0 0.0
2018-May-17 01:30N 36°50' W 076°16'0 0.0
2018-May-17 01:01N 36°50' W 076°16'0 0.0
2018-May-17 00:30N 36°50' W 076°16'0 0.0
2018-May-17 00:01N 36°50' W 076°16'0 0.0
2018-May-16 23:31N 36°50' W 076°16'0 0.2
2018-May-16 23:01N 36°50' W 076°16'4 7.7
2018-May-16 22:28N 36°53' W 076°20'2 3.5
2018-May-16 22:00N 36°55' W 076°20'0 0.1
2018-May-16 21:30N 36°55' W 076°20'1 2.6
2018-May-16 20:56N 36°56' W 076°20'2 1.7
2018-May-16 19:30N 36°54' W 076°20'4 8.3
2018-May-16 19:00N 36°50' W 076°17'1 1.1
2018-May-16 18:30N 36°50' W 076°16'0 0.0
2018-May-16 18:00N 36°50' W 076°16'0 0.0
2018-May-16 17:30N 36°50' W 076°16'0 0.0
2018-May-16 17:00N 36°50' W 076°16'3 4.2
2018-May-16 16:23N 36°52' W 076°19'3 6.6
2018-May-16 16:01N 36°50' W 076°16'0 0.0
2018-May-16 15:31N 36°50' W 076°16'0 0.0
2018-May-16 15:00N 36°50' W 076°16'0 0.0
2018-May-16 14:30N 36°50' W 076°16'0 0.0
2018-May-16 14:00N 36°50' W 076°16'0 0.0
2018-May-16 13:31N 36°50' W 076°16'0 0.0
2018-May-16 13:01N 36°50' W 076°16'0 0.0
2018-May-16 12:31N 36°50' W 076°16'0 0.0
2018-May-16 12:00N 36°50' W 076°16'0 0.0
2018-May-16 11:30N 36°50' W 076°16'0 0.0
2018-May-16 11:00N 36°50' W 076°16'0 0.0
2018-May-16 10:30N 36°50' W 076°16'0 0.0
2018-May-16 10:00N 36°50' W 076°16'0 0.0
2018-May-16 09:30N 36°50' W 076°16'0 0.0
2018-May-16 09:00N 36°50' W 076°16'0 0.0
2018-May-16 08:31N 36°50' W 076°16'0 0.0
2018-May-16 08:00N 36°50' W 076°16'0 0.0
2018-May-16 07:30N 36°50' W 076°16'0 0.0
2018-May-16 07:00N 36°50' W 076°16'0 0.0
2018-May-16 06:30N 36°50' W 076°16'0 0.0
2018-May-16 06:00N 36°50' W 076°16'0 0.0
2018-May-16 05:30N 36°50' W 076°16'0 0.0
2018-May-16 05:00N 36°50' W 076°16'0 0.0
2018-May-16 04:30N 36°50' W 076°16'0 0.0
2018-May-16 04:00N 36°50' W 076°16'0 0.0
2018-May-16 03:30N 36°50' W 076°16'0 0.0
2018-May-16 03:01N 36°50' W 076°16'0 0.0
2018-May-16 02:31N 36°50' W 076°16'0 0.0
2018-May-16 02:01N 36°50' W 076°16'0 0.0
2018-May-16 01:31N 36°50' W 076°16'0 0.0
2018-May-16 01:00N 36°50' W 076°16'0 0.0
2018-May-16 00:31N 36°50' W 076°16'0 0.0
2018-May-16 00:01N 36°50' W 076°16'0 0.0
2018-May-15 23:30N 36°50' W 076°16'0 0.0
2018-May-15 23:00N 36°50' W 076°16'0 0.0
2018-May-15 22:30N 36°50' W 076°16'0 0.6
2018-May-15 22:00N 36°50' W 076°17'3 6.7
2018-May-15 21:30N 36°53' W 076°20'1 1.0
2018-May-15 20:15N 36°54' W 076°20'0 0.9
2018-May-15 19:45N 36°53' W 076°20'1 2.3
2018-May-15 19:31N 36°53' W 076°20'1 1.0
2018-May-15 18:26N 36°52' W 076°19'1 2.8
2018-May-15 17:57N 36°53' W 076°20'0 0.5
2018-May-15 17:29N 36°53' W 076°20'4 7.9
2018-May-15 17:00N 36°50' W 076°16'0 0.1
2018-May-15 16:30N 36°50' W 076°16'0 0.0
2018-May-15 16:00N 36°50' W 076°16'0 0.0
2018-May-15 15:30N 36°50' W 076°16'0 0.0
2018-May-15 15:01N 36°50' W 076°16'0 0.0
2018-May-15 14:31N 36°50' W 076°16'0 0.0
2018-May-15 14:00N 36°50' W 076°16'0 0.0
2018-May-15 13:30N 36°50' W 076°16'0 0.0
2018-May-15 13:01N 36°50' W 076°16'0 0.0
2018-May-15 12:30N 36°50' W 076°16'1 2.7
2018-May-15 12:00N 36°50' W 076°18'1 2.9
2018-May-15 11:30N 36°48' W 076°17'0 0.3
2018-May-15 11:00N 36°48' W 076°17'2 4.6
2018-May-15 10:30N 36°50' W 076°18'2 4.3
2018-May-15 10:00N 36°52' W 076°20'4 1.7
2018-May-15 07:45N 36°56' W 076°20'0 0.0
2018-May-15 07:28N 36°56' W 076°20'0 0.1
2018-May-15 04:39N 36°56' W 076°20'2 8.4
2018-May-15 04:23N 36°53' W 076°20'1 0.9
2018-May-15 03:41N 36°53' W 076°20'0 1.4
2018-May-15 03:30N 36°53' W 076°20'1 2.7
2018-May-15 03:01N 36°51' W 076°19'0 0.0
2018-May-14 22:49N 36°51' W 076°19'2 4.9
2018-May-14 22:24N 36°53' W 076°21'1 1.0
2018-May-14 21:37N 36°53' W 076°20'2 5.7
2018-May-14 21:19N 36°55' W 076°20'  

Dump ship's entire track history